Time,TemperatureF,DewpointF,PressureIn,WindDirection,WindDirectionDegrees,WindSpeedMPH,WindSpeedGustMPH,Humidity,HourlyPrecipIn,Conditions,Clouds,dailyrainin,SoftwareType,DateUTC
2013-02-22 00:01:00,39.4,37.8,30.07,SE,135,0.0,1.1,94,0.00,,,0.00,WUHU21623XXSP,2013-02-22 08:01:00,
2013-02-22 00:06:00,39.4,37.8,30.07,SE,135,0.0,2.9,94,0.00,,,0.00,WUHU21623XXSP,2013-02-22 08:06:00,
2013-02-22 00:11:00,39.6,37.9,30.06,SSE,157,4.7,4.7,94,0.00,,,0.00,WUHU21623XXSP,2013-02-22 08:11:00,
2013-02-22 00:16:00,39.7,38.1,30.07,SSE,157,0.7,5.8,94,0.00,,,0.00,WUHU21623XXSP,2013-02-22 08:16:00,
2013-02-22 00:21:00,39.7,38.1,30.07,SE,135,0.0,5.8,94,0.00,,,0.00,WUHU21623XXSP,2013-02-22 08:21:00,
2013-02-22 00:26:00,39.7,38.1,30.06,SSE,157,0.0,4.3,94,0.00,,,0.00,WUHU21623XXSP,2013-02-22 08:26:00,
2013-02-22 00:31:00,39.9,38.3,30.06,SE,135,3.8,5.6,94,0.00,,,0.00,WUHU21623XXSP,2013-02-22 08:31:00,
2013-02-22 00:36:00,39.9,38.3,30.06,SE,135,3.4,6.3,94,0.00,,,0.00,WUHU21623XXSP,2013-02-22 08:36:00,
2013-02-22 00:41:00,39.9,38.3,30.06,SSE,157,2.5,6.3,94,0.00,,,0.00,WUHU21623XXSP,2013-02-22 08:41:00,
2013-02-22 00:46:00,40.1,38.5,30.06,SSE,157,2.5,7.6,94,0.00,,,0.00,WUHU21623XXSP,2013-02-22 08:46:00,
2013-02-22 00:51:00,40.3,38.7,30.06,ESE,112,0.0,7.6,94,0.00,,,0.00,WUHU21623XXSP,2013-02-22 08:51:00,
2013-02-22 00:56:00,40.3,38.7,30.06,SE,135,2.9,7.8,94,0.00,,,0.00,WUHU21623XXSP,2013-02-22 08:56:00,
2013-02-22 01:01:00,40.3,38.7,30.06,SE,135,0.0,7.8,94,0.00,,,0.00,WUHU21623XXSP,2013-02-22 09:01:00,
2013-02-22 01:06:00,40.5,38.8,30.06,SSE,157,2.2,6.3,94,0.00,,,0.00,WUHU21623XXSP,2013-02-22 09:06:00,
2013-02-22 01:11:00,40.6,39.0,30.06,SSE,157,0.0,5.6,94,0.00,,,0.00,WUHU21623XXSP,2013-02-22 09:11:00,
2013-02-22 01:16:00,40.6,39.0,30.06,SE,135,0.0,5.6,94,0.00,,,0.00,WUHU21623XXSP,2013-02-22 09:16:00,
2013-02-22 01:21:00,40.6,39.0,30.06,SE,135,1.6,4.7,94,0.00,,,0.00,WUHU21623XXSP,2013-02-22 09:21:00,
2013-02-22 01:26:00,40.6,39.0,30.06,SE,135,3.4,4.9,94,0.00,,,0.00,WUHU21623XXSP,2013-02-22 09:26:00,
2013-02-22 01:31:00,40.6,39.0,30.05,SSE,157,1.3,4.9,94,0.00,,,0.00,WUHU21623XXSP,2013-02-22 09:31:00,
2013-02-22 01:36:00,40.6,39.0,30.05,SE,135,1.1,6.7,94,0.00,,,0.00,WUHU21623XXSP,2013-02-22 09:36:00,
2013-02-22 01:41:00,40.6,39.0,30.05,SSE,157,2.2,6.7,94,0.00,,,0.00,WUHU21623XXSP,2013-02-22 09:41:00,
2013-02-22 01:46:00,40.8,39.2,30.05,SE,135,1.3,5.4,94,0.00,,,0.00,WUHU21623XXSP,2013-02-22 09:46:00,
2013-02-22 01:51:00,40.8,39.2,30.05,SE,135,5.4,5.4,94,0.00,,,0.00,WUHU21623XXSP,2013-02-22 09:51:00,
2013-02-22 01:57:00,40.8,39.2,30.05,SSE,157,0.0,5.4,94,0.00,,,0.00,WUHU21623XXSP,2013-02-22 09:57:00,
2013-02-22 02:02:00,40.8,39.2,30.05,SSE,157,0.0,5.1,94,0.00,,,0.00,WUHU21623XXSP,2013-02-22 10:02:00,
2013-02-22 02:07:00,40.8,39.2,30.05,ESE,112,2.5,8.1,94,0.00,,,0.00,WUHU21623XXSP,2013-02-22 10:07:00,
2013-02-22 02:12:00,40.8,39.2,30.05,SE,135,4.0,8.1,94,0.00,,,0.00,WUHU21623XXSP,2013-02-22 10:12:00,
2013-02-22 02:17:00,40.8,39.2,30.05,SSE,157,3.4,8.1,94,0.00,,,0.00,WUHU21623XXSP,2013-02-22 10:17:00,
2013-02-22 02:22:00,40.8,39.2,30.05,SE,135,2.0,8.1,94,0.00,,,0.00,WUHU21623XXSP,2013-02-22 10:22:00,
2013-02-22 02:27:00,40.8,39.2,30.05,SSE,157,1.3,5.8,94,0.00,,,0.00,WUHU21623XXSP,2013-02-22 10:27:00,
2013-02-22 02:32:00,40.8,39.2,30.05,SE,135,0.9,4.9,94,0.00,,,0.00,WUHU21623XXSP,2013-02-22 10:32:00,
2013-02-22 02:37:00,40.8,39.2,30.05,SSE,157,0.0,4.9,94,0.00,,,0.00,WUHU21623XXSP,2013-02-22 10:37:00,
2013-02-22 02:42:00,40.8,39.2,30.05,SSE,157,0.0,5.6,94,0.02,,,0.02,WUHU21623XXSP,2013-02-22 10:42:00,
2013-02-22 02:47:00,40.8,39.2,30.04,SSE,157,8.1,9.6,94,0.02,,,0.02,WUHU21623XXSP,2013-02-22 10:47:00,
2013-02-22 02:52:00,40.8,39.2,30.04,SSE,157,0.2,9.6,94,0.02,,,0.02,WUHU21623XXSP,2013-02-22 10:52:00,
2013-02-22 02:57:00,40.8,39.2,30.04,ESE,112,3.1,7.2,94,0.02,,,0.02,WUHU21623XXSP,2013-02-22 10:57:00,
2013-02-22 03:02:00,40.8,39.2,30.03,SSE,157,1.6,7.6,94,0.02,,,0.02,WUHU21623XXSP,2013-02-22 11:02:00,
2013-02-22 03:07:00,40.8,39.2,30.04,SSE,157,0.0,7.6,94,0.02,,,0.02,WUHU21623XXSP,2013-02-22 11:07:00,
2013-02-22 03:12:00,40.8,38.9,30.03,SSE,157,0.7,3.6,93,0.02,,,0.02,WUHU21623XXSP,2013-02-22 11:12:00,
2013-02-22 03:17:00,40.8,38.9,30.03,SE,135,2.2,3.6,93,0.02,,,0.02,WUHU21623XXSP,2013-02-22 11:17:00,
2013-02-22 03:22:00,40.8,38.9,30.03,SSE,157,3.4,4.7,93,0.02,,,0.02,WUHU21623XXSP,2013-02-22 11:22:00,
2013-02-22 03:27:00,40.8,38.9,30.03,South,180,2.9,7.4,93,0.02,,,0.02,WUHU21623XXSP,2013-02-22 11:27:00,
2013-02-22 03:32:00,40.6,38.8,30.02,SE,135,0.7,7.4,93,0.04,,,0.04,WUHU21623XXSP,2013-02-22 11:32:00,
2013-02-22 03:37:00,40.6,38.8,30.01,SE,135,1.8,7.4,93,0.02,,,0.04,WUHU21623XXSP,2013-02-22 11:37:00,
2013-02-22 03:42:00,40.6,38.8,30.01,SE,135,1.8,6.3,93,0.02,,,0.04,WUHU21623XXSP,2013-02-22 11:42:00,
2013-02-22 03:47:00,40.6,38.8,30.01,SSE,157,5.1,6.3,93,0.02,,,0.04,WUHU21623XXSP,2013-02-22 11:47:00,
2013-02-22 03:52:00,40.5,38.6,30.01,SSE,157,1.8,6.7,93,0.02,,,0.04,WUHU21623XXSP,2013-02-22 11:52:00,
2013-02-22 03:57:00,40.5,38.6,30.01,SE,135,0.0,6.7,93,0.02,,,0.04,WUHU21623XXSP,2013-02-22 11:57:00,
2013-02-22 04:02:00,40.5,38.6,30.01,SE,135,0.0,5.6,93,0.02,,,0.04,WUHU21623XXSP,2013-02-22 12:02:00,
2013-02-22 04:07:00,40.3,38.4,30.01,SE,135,3.8,3.8,93,0.02,,,0.04,WUHU21623XXSP,2013-02-22 12:07:00,
2013-02-22 04:12:00,40.3,38.4,30.00,SSE,157,4.3,9.2,93,0.02,,,0.04,WUHU21623XXSP,2013-02-22 12:12:00,
2013-02-22 04:17:00,40.1,38.2,30.00,East,90,4.9,10.5,93,0.02,,,0.04,WUHU21623XXSP,2013-02-22 12:17:00,
2013-02-22 04:22:00,40.1,38.2,30.00,ENE,67,5.6,10.5,93,0.02,,,0.04,WUHU21623XXSP,2013-02-22 12:22:00,
2013-02-22 04:27:00,39.9,38.0,30.00,SE,135,9.6,9.6,93,0.04,,,0.06,WUHU21623XXSP,2013-02-22 12:27:00,
2013-02-22 04:32:00,39.9,38.0,29.99,SSE,157,1.3,9.6,93,0.04,,,0.06,WUHU21623XXSP,2013-02-22 12:32:00,
2013-02-22 04:37:00,39.9,38.0,29.99,SE,135,2.5,8.9,93,0.02,,,0.06,WUHU21623XXSP,2013-02-22 12:37:00,
2013-02-22 04:42:00,39.9,38.0,29.99,SE,135,4.0,8.3,93,0.02,,,0.06,WUHU21623XXSP,2013-02-22 12:42:00,
2013-02-22 04:47:00,39.9,38.0,29.99,East,90,6.9,8.3,93,0.02,,,0.06,WUHU21623XXSP,2013-02-22 12:47:00,
2013-02-22 04:52:00,39.9,38.0,29.99,ESE,112,0.0,9.2,93,0.02,,,0.06,WUHU21623XXSP,2013-02-22 12:52:00,
2013-02-22 04:57:00,39.7,37.9,29.99,SSE,157,6.3,9.2,93,0.02,,,0.06,WUHU21623XXSP,2013-02-22 12:57:00,
2013-02-22 05:02:00,39.7,37.9,29.99,SSE,157,6.3,9.2,93,0.02,,,0.06,WUHU21623XXSP,2013-02-22 13:02:00,
2013-02-22 05:08:00,39.7,37.9,29.98,SSE,157,10.7,10.7,93,0.02,,,0.06,WUHU21623XXSP,2013-02-22 13:08:00,
2013-02-22 05:13:00,39.7,37.9,29.97,SSE,157,0.0,13.2,93,0.02,,,0.06,WUHU21623XXSP,2013-02-22 13:13:00,
2013-02-22 05:18:00,39.7,37.9,29.97,SE,135,6.7,13.2,93,0.02,,,0.06,WUHU21623XXSP,2013-02-22 13:18:00,
2013-02-22 05:23:00,39.6,37.7,29.97,SE,135,4.7,9.8,93,0.02,,,0.06,WUHU21623XXSP,2013-02-22 13:23:00,
2013-02-22 05:28:00,39.6,37.7,29.96,ESE,112,2.5,9.8,93,0.02,,,0.06,WUHU21623XXSP,2013-02-22 13:28:00,
2013-02-22 05:33:00,39.6,37.7,29.96,SE,135,12.5,12.5,93,0.00,,,0.06,WUHU21623XXSP,2013-02-22 13:33:00,
2013-02-22 05:38:00,39.6,37.4,29.96,SE,135,3.8,12.5,92,0.00,,,0.06,WUHU21623XXSP,2013-02-22 13:38:00,
2013-02-22 05:43:00,39.6,37.4,29.95,ESE,112,2.5,13.2,92,0.00,,,0.06,WUHU21623XXSP,2013-02-22 13:43:00,
2013-02-22 05:48:00,39.6,37.4,29.95,SSE,157,6.7,13.2,92,0.00,,,0.06,WUHU21623XXSP,2013-02-22 13:48:00,
2013-02-22 05:53:00,39.7,37.6,29.94,SE,135,4.9,13.2,92,0.00,,,0.06,WUHU21623XXSP,2013-02-22 13:53:00,
2013-02-22 05:58:00,39.7,37.6,29.94,SSE,157,2.5,13.2,92,0.00,,,0.06,WUHU21623XXSP,2013-02-22 13:58:00,
2013-02-22 06:03:00,39.7,37.6,29.94,ESE,112,4.5,10.3,92,0.00,,,0.06,WUHU21623XXSP,2013-02-22 14:03:00,
2013-02-22 06:08:00,39.7,37.6,29.93,SE,135,3.8,10.1,92,0.00,,,0.06,WUHU21623XXSP,2013-02-22 14:08:00,
2013-02-22 06:13:00,39.9,37.8,29.93,ENE,67,0.7,11.2,92,0.00,,,0.06,WUHU21623XXSP,2013-02-22 14:13:00,
2013-02-22 06:18:00,39.9,37.8,29.92,SE,135,4.7,12.1,92,0.00,,,0.06,WUHU21623XXSP,2013-02-22 14:18:00,
2013-02-22 06:23:00,39.9,37.8,29.92,SSE,157,6.7,16.6,92,0.00,,,0.06,WUHU21623XXSP,2013-02-22 14:23:00,
2013-02-22 06:28:00,40.1,37.9,29.92,SE,135,4.5,16.6,92,0.00,,,0.06,WUHU21623XXSP,2013-02-22 14:28:00,
2013-02-22 06:33:00,40.3,38.1,29.92,SE,135,10.7,13.4,92,0.00,,,0.06,WUHU21623XXSP,2013-02-22 14:33:00,
2013-02-22 06:38:00,40.3,38.1,29.91,ESE,112,4.7,13.4,92,0.00,,,0.06,WUHU21623XXSP,2013-02-22 14:38:00,
2013-02-22 06:43:00,40.3,38.1,29.90,ESE,112,6.9,14.8,92,0.00,,,0.06,WUHU21623XXSP,2013-02-22 14:43:00,
2013-02-22 06:48:00,40.6,38.2,29.90,SE,135,9.2,14.8,91,0.00,,,0.06,WUHU21623XXSP,2013-02-22 14:48:00,
2013-02-22 06:53:00,40.6,38.2,29.90,ESE,112,3.8,13.6,91,0.00,,,0.06,WUHU21623XXSP,2013-02-22 14:53:00,
2013-02-22 06:58:00,40.6,38.2,29.90,ESE,112,4.9,12.3,91,0.00,,,0.06,WUHU21623XXSP,2013-02-22 14:58:00,
2013-02-22 07:03:00,40.6,38.2,29.89,ESE,112,10.5,12.3,91,0.00,,,0.06,WUHU21623XXSP,2013-02-22 15:03:00,
2013-02-22 07:08:00,40.6,38.2,29.89,SSE,157,13.6,13.6,91,0.00,,,0.06,WUHU21623XXSP,2013-02-22 15:08:00,
2013-02-22 07:13:00,40.6,38.2,29.89,SE,135,8.5,16.6,91,0.00,,,0.06,WUHU21623XXSP,2013-02-22 15:13:00,
2013-02-22 07:18:00,40.6,38.2,29.89,SSE,157,5.4,16.6,91,0.00,,,0.06,WUHU21623XXSP,2013-02-22 15:18:00,
2013-02-22 07:23:00,40.6,38.2,29.90,ESE,112,0.0,12.8,91,0.02,,,0.08,WUHU21623XXSP,2013-02-22 15:23:00,
2013-02-22 07:28:00,40.6,38.2,29.90,SE,135,2.9,12.8,91,0.02,,,0.08,WUHU21623XXSP,2013-02-22 15:28:00,
2013-02-22 07:33:00,40.6,38.2,29.89,SSE,157,7.8,10.5,91,0.02,,,0.08,WUHU21623XXSP,2013-02-22 15:33:00,
2013-02-22 07:38:00,40.6,38.2,29.89,SE,135,3.4,11.6,91,0.02,,,0.08,WUHU21623XXSP,2013-02-22 15:38:00,
2013-02-22 07:43:00,40.6,38.2,29.88,SSE,157,2.9,12.1,91,0.02,,,0.08,WUHU21623XXSP,2013-02-22 15:43:00,
2013-02-22 07:48:00,40.5,38.3,29.88,East,90,2.2,12.5,92,0.02,,,0.08,WUHU21623XXSP,2013-02-22 15:48:00,
2013-02-22 07:53:00,40.5,38.3,29.88,SE,135,4.5,12.5,92,0.02,,,0.08,WUHU21623XXSP,2013-02-22 15:53:00,
2013-02-22 07:58:00,40.5,38.3,29.88,SE,135,2.5,8.3,92,0.02,,,0.08,WUHU21623XXSP,2013-02-22 15:58:00,
2013-02-22 08:03:00,40.5,38.3,29.87,SE,135,6.3,9.6,92,0.02,,,0.08,WUHU21623XXSP,2013-02-22 16:03:00,
2013-02-22 08:08:00,40.6,38.5,29.87,SSE,157,3.6,9.6,92,0.02,,,0.08,WUHU21623XXSP,2013-02-22 16:08:00,
2013-02-22 08:13:00,40.6,38.5,29.86,SSE,157,4.0,10.7,92,0.02,,,0.08,WUHU21623XXSP,2013-02-22 16:13:00,
2013-02-22 08:18:00,40.6,38.5,29.87,SSE,157,6.0,14.3,92,0.02,,,0.08,WUHU21623XXSP,2013-02-22 16:18:00,
2013-02-22 08:23:00,40.8,38.7,29.87,ESE,112,6.5,14.3,92,0.00,,,0.08,WUHU21623XXSP,2013-02-22 16:23:00,
2013-02-22 08:28:00,40.8,38.7,29.86,ESE,112,6.5,12.3,92,0.00,,,0.08,WUHU21623XXSP,2013-02-22 16:28:00,
2013-02-22 08:34:00,41.0,38.8,29.86,ESE,112,2.7,12.3,92,0.00,,,0.08,WUHU21623XXSP,2013-02-22 16:34:00,
2013-02-22 08:39:00,41.0,38.8,29.85,SSE,157,6.5,12.8,92,0.00,,,0.08,WUHU21623XXSP,2013-02-22 16:39:00,
2013-02-22 08:44:00,41.2,39.0,29.84,SE,135,2.7,12.8,92,0.00,,,0.08,WUHU21623XXSP,2013-02-22 16:44:00,
2013-02-22 08:49:00,41.2,39.0,29.84,SE,135,9.6,11.2,92,0.00,,,0.08,WUHU21623XXSP,2013-02-22 16:49:00,
2013-02-22 08:54:00,41.2,39.0,29.84,SSE,157,3.6,11.2,92,0.00,,,0.08,WUHU21623XXSP,2013-02-22 16:54:00,
2013-02-22 08:59:00,41.4,39.2,29.84,SSE,157,4.3,14.1,92,0.00,,,0.08,WUHU21623XXSP,2013-02-22 16:59:00,
2013-02-22 09:04:00,41.4,39.2,29.83,SSE,157,8.9,14.1,92,0.00,,,0.08,WUHU21623XXSP,2013-02-22 17:04:00,
2013-02-22 09:09:00,41.5,39.4,29.83,SSE,157,6.0,15.2,92,0.00,,,0.08,WUHU21623XXSP,2013-02-22 17:09:00,
2013-02-22 09:14:00,41.5,39.4,29.84,SSE,157,5.6,15.2,92,0.02,,,0.10,WUHU21623XXSP,2013-02-22 17:14:00,
2013-02-22 09:19:00,41.5,39.4,29.84,South,180,1.8,11.0,92,0.02,,,0.10,WUHU21623XXSP,2013-02-22 17:19:00,
2013-02-22 09:24:00,41.5,39.4,29.85,SE,135,3.8,11.0,92,0.02,,,0.10,WUHU21623XXSP,2013-02-22 17:24:00,
2013-02-22 09:29:00,41.5,39.4,29.84,East,90,4.7,9.6,92,0.02,,,0.10,WUHU21623XXSP,2013-02-22 17:29:00,
2013-02-22 09:34:00,41.5,39.4,29.84,SE,135,5.8,11.0,92,0.02,,,0.10,WUHU21623XXSP,2013-02-22 17:34:00,
2013-02-22 09:39:00,41.7,39.6,29.83,South,180,3.4,11.0,92,0.02,,,0.10,WUHU21623XXSP,2013-02-22 17:39:00,
2013-02-22 09:44:00,41.7,39.6,29.83,SSE,157,6.0,9.4,92,0.02,,,0.10,WUHU21623XXSP,2013-02-22 17:44:00,
2013-02-22 09:49:00,41.7,39.6,29.83,SE,135,6.5,8.3,92,0.02,,,0.10,WUHU21623XXSP,2013-02-22 17:49:00,
2013-02-22 09:54:00,41.7,39.6,29.84,SSE,157,4.0,14.3,92,0.02,,,0.10,WUHU21623XXSP,2013-02-22 17:54:00,
2013-02-22 09:59:00,41.7,39.6,29.84,SSE,157,4.9,14.3,92,0.02,,,0.10,WUHU21623XXSP,2013-02-22 17:59:00,
2013-02-22 10:04:00,41.7,39.6,29.84,SSE,157,3.8,12.8,92,0.02,,,0.10,WUHU21623XXSP,2013-02-22 18:04:00,
2013-02-22 10:09:00,41.7,39.6,29.83,SSE,157,4.7,12.8,92,0.02,,,0.10,WUHU21623XXSP,2013-02-22 18:09:00,
2013-02-22 10:14:00,41.5,39.4,29.83,SSE,157,2.5,12.8,92,0.02,,,0.12,WUHU21623XXSP,2013-02-22 18:14:00,
2013-02-22 10:19:00,41.7,39.8,29.83,South,180,6.5,12.8,93,0.02,,,0.12,WUHU21623XXSP,2013-02-22 18:19:00,
2013-02-22 10:24:00,41.7,39.8,29.83,SE,135,3.1,9.2,93,0.02,,,0.12,WUHU21623XXSP,2013-02-22 18:24:00,
2013-02-22 10:29:00,41.5,39.6,29.83,SSE,157,6.9,10.7,93,0.02,,,0.12,WUHU21623XXSP,2013-02-22 18:29:00,
2013-02-22 10:34:00,41.5,39.6,29.83,South,180,4.3,10.7,93,0.02,,,0.12,WUHU21623XXSP,2013-02-22 18:34:00,
2013-02-22 10:39:00,41.7,39.8,29.83,SSE,157,4.7,10.3,93,0.02,,,0.12,WUHU21623XXSP,2013-02-22 18:39:00,
2013-02-22 10:44:00,41.7,39.8,29.83,SSE,157,8.1,10.3,93,0.02,,,0.12,WUHU21623XXSP,2013-02-22 18:44:00,
2013-02-22 10:49:00,41.7,39.8,29.82,SSE,157,1.6,8.5,93,0.02,,,0.12,WUHU21623XXSP,2013-02-22 18:49:00,
2013-02-22 10:54:00,41.7,39.8,29.82,SSE,157,0.0,8.3,93,0.02,,,0.12,WUHU21623XXSP,2013-02-22 18:54:00,
2013-02-22 10:59:00,41.7,39.8,29.82,SE,135,2.9,9.6,93,0.02,,,0.12,WUHU21623XXSP,2013-02-22 18:59:00,
2013-02-22 11:04:00,41.9,40.0,29.82,SSE,157,7.4,9.6,93,0.02,,,0.12,WUHU21623XXSP,2013-02-22 19:04:00,
2013-02-22 11:09:00,41.7,39.8,29.81,SE,135,3.6,17.4,93,0.00,,,0.12,WUHU21623XXSP,2013-02-22 19:09:00,
2013-02-22 11:14:00,41.9,40.0,29.81,SSE,157,2.2,17.4,93,0.00,,,0.12,WUHU21623XXSP,2013-02-22 19:14:00,
2013-02-22 11:19:00,41.9,40.0,29.81,South,180,11.9,11.9,93,0.00,,,0.12,WUHU21623XXSP,2013-02-22 19:19:00,
2013-02-22 11:24:00,41.9,40.0,29.80,SSE,157,2.9,11.9,93,0.00,,,0.12,WUHU21623XXSP,2013-02-22 19:24:00,
2013-02-22 11:29:00,41.9,40.0,29.80,SE,135,6.9,10.5,93,0.00,,,0.12,WUHU21623XXSP,2013-02-22 19:29:00,
2013-02-22 11:34:00,41.9,40.0,29.80,SE,135,5.4,10.3,93,0.02,,,0.14,WUHU21623XXSP,2013-02-22 19:34:00,
2013-02-22 11:39:00,41.9,40.0,29.80,SE,135,5.6,9.6,93,0.02,,,0.14,WUHU21623XXSP,2013-02-22 19:39:00,
2013-02-22 11:44:00,42.1,40.2,29.79,SSE,157,4.9,9.2,93,0.02,,,0.14,WUHU21623XXSP,2013-02-22 19:44:00,
2013-02-22 11:49:00,42.1,40.2,29.80,SSE,157,3.4,9.2,93,0.02,,,0.14,WUHU21623XXSP,2013-02-22 19:49:00,
2013-02-22 11:54:00,42.1,40.2,29.79,SSE,157,2.7,8.7,93,0.02,,,0.14,WUHU21623XXSP,2013-02-22 19:54:00,
2013-02-22 11:59:00,42.1,40.2,29.80,South,180,3.6,7.4,93,0.02,,,0.14,WUHU21623XXSP,2013-02-22 19:59:00,
2013-02-22 12:04:00,42.1,39.9,29.80,SE,135,2.7,8.5,92,0.02,,,0.14,WUHU21623XXSP,2013-02-22 20:04:00,
2013-02-22 12:09:00,42.1,40.2,29.78,SE,135,2.9,8.5,93,0.02,,,0.14,WUHU21623XXSP,2013-02-22 20:09:00,
2013-02-22 12:14:00,42.1,39.9,29.78,South,180,1.1,7.8,92,0.02,,,0.14,WUHU21623XXSP,2013-02-22 20:14:00,
2013-02-22 12:20:00,41.9,39.7,29.78,SE,135,2.2,10.7,92,0.02,,,0.14,WUHU21623XXSP,2013-02-22 20:20:00,
2013-02-22 12:25:00,41.9,39.7,29.78,SE,135,4.7,10.7,92,0.02,,,0.14,WUHU21623XXSP,2013-02-22 20:25:00,
2013-02-22 12:30:00,41.9,39.7,29.78,ESE,112,3.1,8.1,92,0.00,,,0.14,WUHU21623XXSP,2013-02-22 20:30:00,
2013-02-22 12:35:00,41.9,40.0,29.76,SE,135,6.3,9.6,93,0.00,,,0.14,WUHU21623XXSP,2013-02-22 20:35:00,
2013-02-22 12:40:00,41.9,40.0,29.76,SE,135,6.0,11.2,93,0.00,,,0.14,WUHU21623XXSP,2013-02-22 20:40:00,
2013-02-22 12:45:00,41.9,40.0,29.76,SE,135,0.9,11.2,93,0.00,,,0.14,WUHU21623XXSP,2013-02-22 20:45:00,
2013-02-22 12:50:00,41.9,40.0,29.76,SE,135,5.4,7.4,93,0.00,,,0.14,WUHU21623XXSP,2013-02-22 20:50:00,
2013-02-22 12:55:00,41.9,40.0,29.76,SE,135,6.0,8.3,93,0.00,,,0.14,WUHU21623XXSP,2013-02-22 20:55:00,
2013-02-22 13:00:00,41.9,40.0,29.76,ENE,67,6.9,10.5,93,0.00,,,0.14,WUHU21623XXSP,2013-02-22 21:00:00,
2013-02-22 13:05:00,41.9,40.0,29.75,East,90,4.5,19.0,93,0.00,,,0.14,WUHU21623XXSP,2013-02-22 21:05:00,
2013-02-22 13:10:00,42.1,40.2,29.75,SSE,157,5.4,19.0,93,0.00,,,0.14,WUHU21623XXSP,2013-02-22 21:10:00,
2013-02-22 13:15:00,42.1,40.2,29.75,SSE,157,2.5,7.6,93,0.02,,,0.16,WUHU21623XXSP,2013-02-22 21:15:00,
2013-02-22 13:20:00,42.1,40.2,29.75,SSE,157,9.8,9.8,93,0.02,,,0.16,WUHU21623XXSP,2013-02-22 21:20:00,
2013-02-22 13:25:00,42.1,40.2,29.75,ESE,112,0.0,9.8,93,0.02,,,0.16,WUHU21623XXSP,2013-02-22 21:25:00,
2013-02-22 13:30:00,42.1,40.2,29.74,East,90,5.6,10.5,93,0.02,,,0.16,WUHU21623XXSP,2013-02-22 21:30:00,
2013-02-22 13:35:00,42.1,40.2,29.74,SSE,157,1.1,10.7,93,0.02,,,0.16,WUHU21623XXSP,2013-02-22 21:35:00,
2013-02-22 13:40:00,42.1,40.2,29.72,ESE,112,0.0,10.7,93,0.02,,,0.16,WUHU21623XXSP,2013-02-22 21:40:00,
2013-02-22 13:45:00,42.3,40.4,29.72,SSE,157,8.1,11.4,93,0.02,,,0.16,WUHU21623XXSP,2013-02-22 21:45:00,
2013-02-22 13:50:00,42.4,40.5,29.71,South,180,4.9,11.4,93,0.02,,,0.16,WUHU21623XXSP,2013-02-22 21:50:00,
2013-02-22 13:55:00,42.4,40.5,29.72,SSE,157,2.9,10.7,93,0.02,,,0.16,WUHU21623XXSP,2013-02-22 21:55:00,
2013-02-22 14:00:00,42.4,40.5,29.73,SSE,157,6.0,10.7,93,0.02,,,0.16,WUHU21623XXSP,2013-02-22 22:00:00,
2013-02-22 14:05:00,42.4,40.5,29.73,SE,135,5.8,13.6,93,0.02,,,0.16,WUHU21623XXSP,2013-02-22 22:05:00,
2013-02-22 14:10:00,42.4,40.3,29.73,SSE,157,6.0,13.6,92,0.00,,,0.16,WUHU21623XXSP,2013-02-22 22:10:00,
2013-02-22 14:15:00,42.4,40.3,29.74,SSE,157,5.6,9.8,92,0.00,,,0.16,WUHU21623XXSP,2013-02-22 22:15:00,
2013-02-22 14:20:00,42.6,40.5,29.73,SSE,157,2.9,9.8,92,0.00,,,0.16,WUHU21623XXSP,2013-02-22 22:20:00,
2013-02-22 14:25:00,42.6,40.5,29.74,ESE,112,4.3,10.3,92,0.00,,,0.16,WUHU21623XXSP,2013-02-22 22:25:00,
2013-02-22 14:30:00,42.6,40.5,29.74,ESE,112,0.0,10.3,92,0.00,,,0.16,WUHU21623XXSP,2013-02-22 22:30:00,
2013-02-22 14:35:00,42.6,40.5,29.72,SSE,157,10.3,10.3,92,0.00,,,0.16,WUHU21623XXSP,2013-02-22 22:35:00,
2013-02-22 14:40:00,42.6,40.2,29.72,SSE,157,3.4,10.3,91,0.00,,,0.16,WUHU21623XXSP,2013-02-22 22:40:00,
2013-02-22 14:45:00,42.6,40.2,29.73,SE,135,2.5,6.9,91,0.00,,,0.16,WUHU21623XXSP,2013-02-22 22:45:00,
2013-02-22 14:50:00,42.6,40.2,29.73,WSW,247,1.1,6.0,91,0.00,,,0.16,WUHU21623XXSP,2013-02-22 22:50:00,
2013-02-22 14:55:00,42.8,40.4,29.72,South,180,2.7,6.9,91,0.00,,,0.16,WUHU21623XXSP,2013-02-22 22:55:00,
2013-02-22 15:00:00,42.8,40.4,29.72,SSE,157,3.6,6.9,91,0.00,,,0.16,WUHU21623XXSP,2013-02-22 23:00:00,
2013-02-22 15:05:00,42.6,40.2,29.71,SE,135,4.5,6.0,91,0.00,,,0.16,WUHU21623XXSP,2013-02-22 23:05:00,
2013-02-22 15:10:00,42.8,40.4,29.71,SSE,157,0.0,6.5,91,0.00,,,0.16,WUHU21623XXSP,2013-02-22 23:10:00,
2013-02-22 15:15:00,42.8,40.4,29.71,ENE,67,2.5,6.5,91,0.00,,,0.16,WUHU21623XXSP,2013-02-22 23:15:00,
2013-02-22 15:20:00,43.0,40.5,29.72,East,90,0.4,4.7,91,0.00,,,0.16,WUHU21623XXSP,2013-02-22 23:20:00,
2013-02-22 15:25:00,43.0,40.5,29.72,SE,135,1.3,4.7,91,0.00,,,0.16,WUHU21623XXSP,2013-02-22 23:25:00,
2013-02-22 15:30:00,43.0,40.5,29.72,SE,135,0.0,2.7,91,0.00,,,0.16,WUHU21623XXSP,2013-02-22 23:30:00,
2013-02-22 15:35:00,43.0,40.5,29.72,ESE,112,0.7,2.2,91,0.00,,,0.16,WUHU21623XXSP,2013-02-22 23:35:00,
2013-02-22 15:40:00,43.0,40.5,29.71,SE,135,0.0,4.3,91,0.00,,,0.16,WUHU21623XXSP,2013-02-22 23:40:00,
2013-02-22 15:45:00,43.0,40.5,29.71,SE,135,0.0,4.3,91,0.00,,,0.16,WUHU21623XXSP,2013-02-22 23:45:00,
2013-02-22 15:50:00,43.0,40.5,29.71,SE,135,0.0,3.1,91,0.00,,,0.16,WUHU21623XXSP,2013-02-22 23:50:00,
2013-02-22 15:55:00,43.2,40.7,29.71,SE,135,0.0,3.1,91,0.00,,,0.16,WUHU21623XXSP,2013-02-22 23:55:00,
2013-02-22 16:00:00,43.0,40.5,29.70,NNE,22,0.0,2.5,91,0.00,,,0.16,WUHU21623XXSP,2013-02-23 00:00:00,
2013-02-22 16:05:00,43.2,40.7,29.70,SSE,157,3.1,4.9,91,0.00,,,0.16,WUHU21623XXSP,2013-02-23 00:05:00,
2013-02-22 16:10:00,43.2,40.7,29.70,SE,135,0.0,10.3,91,0.02,,,0.16,WUHU21623XXSP,2013-02-23 00:10:00,
2013-02-22 16:15:00,43.2,40.7,29.70,SSW,202,3.4,11.2,91,0.02,,,0.18,WUHU21623XXSP,2013-02-23 00:15:00,
2013-02-22 16:20:00,43.2,40.7,29.70,SSE,157,4.0,11.2,91,0.02,,,0.18,WUHU21623XXSP,2013-02-23 00:20:00,
2013-02-22 16:25:00,43.3,40.9,29.69,SSE,157,2.5,12.1,91,0.02,,,0.18,WUHU21623XXSP,2013-02-23 00:25:00,
2013-02-22 16:31:00,43.2,40.7,29.71,WNW,292,2.7,12.1,91,0.02,,,0.18,WUHU21623XXSP,2013-02-23 00:31:00,
2013-02-22 16:36:00,43.0,40.5,29.73,WNW,292,8.9,14.1,91,0.04,,,0.18,WUHU21623XXSP,2013-02-23 00:36:00,
2013-02-22 16:41:00,42.1,39.4,29.74,West,270,3.1,14.1,90,0.04,,,0.20,WUHU21623XXSP,2013-02-23 00:41:00,
2013-02-22 16:46:00,40.6,37.6,29.73,NNW,337,0.7,11.6,89,0.06,,,0.22,WUHU21623XXSP,2013-02-23 00:46:00,
2013-02-22 16:51:00,39.6,36.6,29.73,NNW,337,0.0,4.9,89,0.08,,,0.24,WUHU21623XXSP,2013-02-23 00:51:00,
2013-02-22 16:56:00,38.8,35.9,29.74,NNW,337,0.0,2.9,89,0.10,,,0.26,WUHU21623XXSP,2013-02-23 00:56:00,
2013-02-22 17:01:00,38.5,35.5,29.75,SSE,157,2.2,5.4,89,0.12,,,0.28,WUHU21623XXSP,2013-02-23 01:01:00,
2013-02-22 17:06:00,38.1,35.1,29.75,South,180,0.7,5.4,89,0.14,,,0.30,WUHU21623XXSP,2013-02-23 01:06:00,
2013-02-22 17:11:00,37.8,34.8,29.74,SSE,157,0.0,4.3,89,0.16,,,0.32,WUHU21623XXSP,2013-02-23 01:11:00,
2013-02-22 17:16:00,37.2,34.2,29.74,ESE,112,0.0,4.3,89,0.16,,,0.34,WUHU21623XXSP,2013-02-23 01:16:00,
2013-02-22 17:21:00,37.0,34.3,29.74,ENE,67,0.7,3.6,90,0.18,,,0.36,WUHU21623XXSP,2013-02-23 01:21:00,
2013-02-22 17:26:00,36.7,34.0,29.74,SSE,157,0.7,4.0,90,0.20,,,0.38,WUHU21623XXSP,2013-02-23 01:26:00,
2013-02-22 17:31:00,36.3,33.6,29.75,SE,135,0.7,4.0,90,0.22,,,0.40,WUHU21623XXSP,2013-02-23 01:31:00,
2013-02-22 17:36:00,36.1,33.4,29.75,SSE,157,0.4,3.8,90,0.22,,,0.42,WUHU21623XXSP,2013-02-23 01:36:00,
2013-02-22 17:41:00,36.0,33.3,29.75,ESE,112,0.0,3.8,90,0.20,,,0.42,WUHU21623XXSP,2013-02-23 01:41:00,
2013-02-22 17:46:00,35.8,33.1,29.76,ESE,112,0.0,0.9,90,0.20,,,0.44,WUHU21623XXSP,2013-02-23 01:46:00,
2013-02-22 17:51:00,35.8,33.4,29.76,ESE,112,0.0,1.6,91,0.20,,,0.46,WUHU21623XXSP,2013-02-23 01:51:00,
2013-02-22 17:56:00,35.4,33.0,29.76,South,180,2.2,2.9,91,0.20,,,0.46,WUHU21623XXSP,2013-02-23 01:56:00,
2013-02-22 18:01:00,35.4,33.0,29.76,SSE,157,5.6,5.6,91,0.16,,,0.46,WUHU21623XXSP,2013-02-23 02:01:00,
2013-02-22 18:06:00,35.4,33.0,29.76,SSE,157,0.0,5.8,91,0.16,,,0.49,WUHU21623XXSP,2013-02-23 02:06:00,
2013-02-22 18:11:00,35.2,32.8,29.76,East,90,0.0,5.8,91,0.16,,,0.51,WUHU21623XXSP,2013-02-23 02:11:00,
2013-02-22 18:16:00,35.2,32.8,29.77,East,90,0.0,2.0,91,0.16,,,0.53,WUHU21623XXSP,2013-02-23 02:16:00,
2013-02-22 18:21:00,35.2,33.1,29.77,SSE,157,0.4,2.5,92,0.16,,,0.55,WUHU21623XXSP,2013-02-23 02:21:00,
2013-02-22 18:26:00,34.9,32.7,29.77,SE,135,2.9,5.1,92,0.14,,,0.55,WUHU21623XXSP,2013-02-23 02:26:00,
2013-02-22 18:31:00,34.9,32.7,29.78,SE,135,6.9,6.9,92,0.14,,,0.55,WUHU21623XXSP,2013-02-23 02:31:00,
2013-02-22 18:36:00,34.7,32.5,29.78,SSE,157,0.0,6.9,92,0.14,,,0.57,WUHU21623XXSP,2013-02-23 02:36:00,
2013-02-22 18:41:00,34.3,31.9,29.78,SE,135,0.0,5.6,91,0.12,,,0.57,WUHU21623XXSP,2013-02-23 02:41:00,
2013-02-22 18:46:00,34.3,32.2,29.78,SE,135,0.0,2.2,92,0.12,,,0.57,WUHU21623XXSP,2013-02-23 02:46:00,
2013-02-22 18:51:00,34.3,32.2,29.78,NE,45,0.0,1.6,92,0.10,,,0.57,WUHU21623XXSP,2013-02-23 02:51:00,
2013-02-22 18:56:00,34.3,32.2,29.78,ENE,67,0.0,1.3,92,0.10,,,0.57,WUHU21623XXSP,2013-02-23 02:56:00,
2013-02-22 19:01:00,34.3,32.2,29.79,West,270,0.0,2.0,92,0.08,,,0.57,WUHU21623XXSP,2013-02-23 03:01:00,
2013-02-22 19:06:00,34.2,32.0,29.78,West,270,0.0,2.0,92,0.06,,,0.57,WUHU21623XXSP,2013-02-23 03:06:00,
2013-02-22 19:11:00,34.0,32.0,29.78,West,270,0.0,0.0,92,0.06,,,0.57,WUHU21623XXSP,2013-02-23 03:11:00,
2013-02-22 19:16:00,34.0,31.8,29.78,West,270,0.0,0.0,92,0.04,,,0.57,WUHU21623XXSP,2013-02-23 03:16:00,
2013-02-22 19:21:00,34.0,31.8,29.79,West,270,0.0,0.0,92,0.02,,,0.57,WUHU21623XXSP,2013-02-23 03:21:00,
2013-02-22 19:26:00,34.0,31.8,29.79,SW,225,0.0,1.8,92,0.02,,,0.57,WUHU21623XXSP,2013-02-23 03:26:00,
2013-02-22 19:31:00,34.0,31.8,29.80,WSW,247,3.8,6.9,92,0.02,,,0.57,WUHU21623XXSP,2013-02-23 03:31:00,
2013-02-22 19:36:00,34.0,32.1,29.80,SE,135,1.3,6.9,93,0.00,,,0.57,WUHU21623XXSP,2013-02-23 03:36:00,
2013-02-22 19:41:00,34.0,32.1,29.81,South,180,0.0,6.7,93,0.00,,,0.57,WUHU21623XXSP,2013-02-23 03:41:00,
2013-02-22 19:46:00,34.2,32.1,29.81,South,180,0.0,2.0,93,0.00,,,0.57,WUHU21623XXSP,2013-02-23 03:46:00,
2013-02-22 19:51:00,34.2,32.3,29.82,South,180,0.0,0.0,93,0.00,,,0.57,WUHU21623XXSP,2013-02-23 03:51:00,
2013-02-22 19:56:00,34.0,32.1,29.82,South,180,0.0,0.0,93,0.00,,,0.57,WUHU21623XXSP,2013-02-23 03:56:00,
2013-02-22 20:01:00,34.0,32.1,29.82,South,180,0.0,0.0,93,0.00,,,0.57,WUHU21623XXSP,2013-02-23 04:01:00,
2013-02-22 20:06:00,34.0,32.1,29.82,South,180,0.0,0.7,93,0.00,,,0.57,WUHU21623XXSP,2013-02-23 04:06:00,
2013-02-22 20:11:00,34.0,32.1,29.82,South,180,0.0,0.7,93,0.00,,,0.57,WUHU21623XXSP,2013-02-23 04:11:00,
2013-02-22 20:16:00,34.0,32.1,29.82,South,180,0.0,0.7,93,0.00,,,0.57,WUHU21623XXSP,2013-02-23 04:16:00,
2013-02-22 20:21:00,34.0,32.1,29.82,SSW,202,0.0,0.0,93,0.00,,,0.57,WUHU21623XXSP,2013-02-23 04:21:00,
2013-02-22 20:26:00,34.0,32.1,29.82,SSW,202,0.0,0.0,93,0.00,,,0.57,WUHU21623XXSP,2013-02-23 04:26:00,
2013-02-22 20:31:00,33.8,31.9,29.82,SSW,202,0.0,0.0,93,0.00,,,0.57,WUHU21623XXSP,2013-02-23 04:31:00,
2013-02-22 20:36:00,33.6,31.7,29.83,SSW,202,0.0,0.0,93,0.00,,,0.57,WUHU21623XXSP,2013-02-23 04:36:00,
2013-02-22 20:41:00,33.6,31.7,29.83,SW,225,0.0,0.0,93,0.00,,,0.57,WUHU21623XXSP,2013-02-23 04:41:00,
2013-02-22 20:46:00,33.6,31.7,29.83,SW,225,0.0,0.0,93,0.00,,,0.57,WUHU21623XXSP,2013-02-23 04:46:00,
2013-02-22 20:51:00,33.6,31.7,29.83,SW,225,0.0,0.0,93,0.00,,,0.57,WUHU21623XXSP,2013-02-23 04:51:00,
2013-02-22 20:56:00,33.6,31.7,29.84,SSW,202,0.0,0.0,93,0.00,,,0.57,WUHU21623XXSP,2013-02-23 04:56:00,
2013-02-22 21:00:00,33.4,31.6,29.84,SSE,157,1.6,1.6,93,0.00,,,0.57,WUHU21623XXSP,2013-02-23 05:00:00,
2013-02-22 21:01:00,33.4,31.6,29.84,SSE,157,1.8,2.0,93,0.00,,,0.57,WUHU21623XXSP,2013-02-23 05:01:00,
2013-02-22 21:06:00,33.4,31.6,29.85,SSE,157,0.0,2.9,93,0.00,,,0.57,WUHU21623XXSP,2013-02-23 05:06:00,
2013-02-22 21:11:00,33.4,31.6,29.86,SSE,157,0.0,2.9,93,0.00,,,0.57,WUHU21623XXSP,2013-02-23 05:11:00,
2013-02-22 21:16:00,33.4,31.6,29.86,SSE,157,0.0,0.0,93,0.00,,,0.57,WUHU21623XXSP,2013-02-23 05:16:00,
2013-02-22 21:21:00,33.4,31.6,29.86,SSE,157,0.0,0.0,93,0.00,,,0.57,WUHU21623XXSP,2013-02-23 05:21:00,
2013-02-22 21:26:00,33.4,31.6,29.86,SSE,157,0.0,0.0,93,0.00,,,0.57,WUHU21623XXSP,2013-02-23 05:26:00,
2013-02-22 21:31:00,33.4,31.6,29.86,SSE,157,0.0,0.0,93,0.00,,,0.57,WUHU21623XXSP,2013-02-23 05:31:00,
2013-02-22 21:36:00,33.4,31.6,29.86,SSE,157,0.0,0.0,93,0.00,,,0.57,WUHU21623XXSP,2013-02-23 05:36:00,
2013-02-22 21:41:00,33.6,31.7,29.87,SE,135,0.0,0.0,93,0.00,,,0.57,WUHU21623XXSP,2013-02-23 05:41:00,
2013-02-22 21:46:00,33.6,31.7,29.87,East,90,0.0,1.1,93,0.00,,,0.57,WUHU21623XXSP,2013-02-23 05:46:00,
2013-02-22 21:51:00,33.6,31.7,29.87,East,90,0.0,1.1,93,0.00,,,0.57,WUHU21623XXSP,2013-02-23 05:51:00,
2013-02-22 21:56:00,33.6,31.7,29.87,East,90,0.0,0.0,93,0.00,,,0.57,WUHU21623XXSP,2013-02-23 05:56:00,
2013-02-22 22:01:00,33.6,31.7,29.87,East,90,0.0,0.0,93,0.00,,,0.57,WUHU21623XXSP,2013-02-23 06:01:00,
2013-02-22 22:06:00,33.6,32.0,29.87,ENE,67,0.0,1.8,94,0.00,,,0.57,WUHU21623XXSP,2013-02-23 06:06:00,
2013-02-22 22:11:00,33.8,32.2,29.87,SE,135,0.0,2.7,94,0.00,,,0.57,WUHU21623XXSP,2013-02-23 06:11:00,
2013-02-22 22:16:00,33.8,32.2,29.88,SE,135,0.0,2.7,94,0.02,,,0.59,WUHU21623XXSP,2013-02-23 06:16:00,
2013-02-22 22:21:00,34.0,32.4,29.88,SSE,157,0.0,2.2,94,0.02,,,0.59,WUHU21623XXSP,2013-02-23 06:21:00,
2013-02-22 22:26:00,34.0,32.4,29.89,SW,225,0.0,1.1,94,0.02,,,0.59,WUHU21623XXSP,2013-02-23 06:26:00,
2013-02-22 22:31:00,34.2,32.5,29.89,SSW,202,0.0,1.1,94,0.02,,,0.59,WUHU21623XXSP,2013-02-23 06:31:00,
2013-02-22 22:36:00,34.2,32.5,29.89,South,180,0.0,2.0,94,0.02,,,0.59,WUHU21623XXSP,2013-02-23 06:36:00,
2013-02-22 22:41:00,34.2,32.5,29.89,SE,135,2.5,2.5,94,0.02,,,0.59,WUHU21623XXSP,2013-02-23 06:41:00,
2013-02-22 22:46:00,34.3,32.7,29.89,SE,135,0.0,2.7,94,0.02,,,0.59,WUHU21623XXSP,2013-02-23 06:46:00,
2013-02-22 22:51:00,34.3,32.7,29.90,SE,135,0.0,2.7,94,0.02,,,0.59,WUHU21623XXSP,2013-02-23 06:51:00,
2013-02-22 22:56:00,34.3,32.7,29.91,SE,135,0.0,4.0,94,0.02,,,0.59,WUHU21623XXSP,2013-02-23 06:56:00,
2013-02-22 23:01:00,34.3,32.7,29.91,SE,135,0.0,4.0,94,0.02,,,0.59,WUHU21623XXSP,2013-02-23 07:01:00,
2013-02-22 23:06:00,34.3,32.7,29.91,SE,135,0.0,0.9,94,0.02,,,0.59,WUHU21623XXSP,2013-02-23 07:06:00,
2013-02-22 23:11:00,34.3,32.7,29.91,ENE,67,0.0,0.9,94,0.00,,,0.59,WUHU21623XXSP,2013-02-23 07:11:00,
2013-02-22 23:16:00,34.3,32.7,29.91,ENE,67,0.0,0.9,94,0.00,,,0.59,WUHU21623XXSP,2013-02-23 07:16:00,
2013-02-22 23:21:00,34.3,32.7,29.91,ENE,67,0.0,0.0,94,0.00,,,0.59,WUHU21623XXSP,2013-02-23 07:21:00,
2013-02-22 23:26:00,34.3,32.7,29.91,ENE,67,0.0,1.6,94,0.00,,,0.59,WUHU21623XXSP,2013-02-23 07:26:00,
2013-02-22 23:31:00,34.3,32.7,29.91,SE,135,0.0,2.9,94,0.00,,,0.59,WUHU21623XXSP,2013-02-23 07:31:00,
2013-02-22 23:36:00,34.3,32.7,29.91,SE,135,0.0,2.9,94,0.00,,,0.59,WUHU21623XXSP,2013-02-23 07:36:00,
2013-02-22 23:41:00,34.5,32.9,29.91,SE,135,0.0,0.7,94,0.00,,,0.59,WUHU21623XXSP,2013-02-23 07:41:00,
2013-02-22 23:46:00,34.5,32.9,29.92,SE,135,0.0,0.0,94,0.00,,,0.59,WUHU21623XXSP,2013-02-23 07:46:00,
2013-02-22 23:51:00,34.7,33.1,29.92,SE,135,0.0,0.0,94,0.02,,,0.61,WUHU21623XXSP,2013-02-23 07:51:00,
2013-02-22 23:56:00,34.7,33.1,29.92,SE,135,0.0,0.0,94,0.02,,,0.61,WUHU21623XXSP,2013-02-23 07:56:00,